Terminal Aerodrome Forecast
Issued by NWS Billings, MT

Home | Current Version | Previous Version | Text Only | Print | Product List | Glossary On
Versions: 1 2 3 4 5 6 7 8 9 10 11 12 13 14 15 16 17
000
FTUS45 KBYZ 232323
TAFMLS
TAF
KMLS 232323Z 2400/2424 32018G28KT P6SM FEW080
     FM240100 33014KT P6SM SKC
     FM240400 28007KT P6SM SKC
     FM241000 VRB06KT P6SM SKC
     FM241800 29012G22KT P6SM SKC=

USA.gov is the U.S. government's official web portal to all federal, state and local government web resources and services.